Time;durP1;ratioP1;P1;durP2;ratioP2;P2;SDS_P1;SDS_P2;PMS_P1;PMS_P2;Temp;Humidity;BMP_temperature;BMP_pressure;BME280_temperature;BME280_humidity;BME280_pressure;Samples;Min_cycle;Max_cycle;Signal;HPM_P1;HPM_P2
2021/11/22 07:00:33;;;;;;;15.73;2.30;;;5.90;99.90;;;;;;6093918;23;20095;-80
2021/11/22 07:03:00;;;;;;;10.32;1.70;;;5.90;99.90;;;;;;6154276;23;20028;-79
2021/11/22 07:05:28;;;;;;;12.45;1.58;;;5.90;99.90;;;;;;6180288;23;20017;-78
2021/11/22 07:07:55;;;;;;;13.73;2.25;;;5.90;99.90;;;;;;6182094;23;20344;-79
2021/11/22 07:10:22;;;;;;;9.60;1.63;;;5.90;99.90;;;;;;6180728;23;20095;-80
2021/11/22 07:12:50;;;;;;;11.60;2.15;;;5.90;99.90;;;;;;6178069;23;20019;-80
2021/11/22 07:15:21;;;;;;;14.05;1.90;;;5.90;99.90;;;;;;6178745;23;20071;-78
2021/11/22 07:17:52;;;;;;;10.27;1.60;;;5.90;99.90;;;;;;6179247;23;20435;-79
2021/11/22 07:20:20;;;;;;;12.45;1.73;;;5.90;99.90;;;;;;6180213;23;20075;-81
2021/11/22 07:22:46;;;;;;;18.47;2.00;;;6.00;99.90;;;;;;6179987;23;20075;-81
2021/11/22 07:25:13;;;;;;;13.00;2.08;;;6.00;99.90;;;;;;6178952;23;20055;-80
2021/11/22 07:27:41;;;;;;;10.18;1.67;;;6.10;99.90;;;;;;6181466;23;20017;-79
2021/11/22 07:30:08;;;;;;;10.30;1.70;;;6.10;99.90;;;;;;6180582;23;20072;-79
2021/11/22 07:32:36;;;;;;;8.20;1.45;;;6.10;99.90;;;;;;6180623;23;20546;-80
2021/11/22 07:35:03;;;;;;;12.48;1.70;;;6.20;99.90;;;;;;6153904;23;20087;-80
2021/11/22 07:37:31;;;;;;;16.38;2.03;;;6.20;99.90;;;;;;6153186;23;20021;-80
2021/11/22 07:39:59;;;;;;;9.93;1.70;;;6.30;99.90;;;;;;6179804;23;20097;-79
2021/11/22 07:42:29;;;;;;;13.65;1.80;;;6.30;99.90;;;;;;6178944;23;20025;-77
2021/11/22 07:44:56;;;;;;;12.88;1.77;;;6.30;99.90;;;;;;6179801;23;20017;-79
2021/11/22 07:47:23;;;;;;;13.43;1.50;;;6.30;99.90;;;;;;6178551;23;20025;-80
2021/11/22 07:49:50;;;;;;;12.43;1.58;;;6.40;99.90;;;;;;6180449;23;20480;-79
2021/11/22 07:52:19;;;;;;;13.98;1.88;;;6.40;99.90;;;;;;6178339;23;20483;-78
2021/11/22 07:54:46;;;;;;;11.00;1.95;;;6.50;99.90;;;;;;6179341;23;20399;-79
2021/11/22 07:57:13;;;;;;;12.25;1.77;;;6.50;99.90;;;;;;6178319;23;20079;-79
2021/11/22 07:59:41;;;;;;;12.90;2.22;;;6.60;99.90;;;;;;6179994;23;20017;-80
2021/11/22 08:02:08;;;;;;;11.98;1.88;;;6.60;99.90;;;;;;6178228;23;20025;-80
2021/11/22 08:04:35;;;;;;;18.77;2.38;;;6.60;99.90;;;;;;6179824;23;20489;-79
2021/11/22 08:07:09;;;;;;;13.88;2.20;;;6.60;99.90;;;;;;6179269;23;20549;-79
2021/11/22 08:09:42;;;;;;;10.18;1.90;;;6.70;99.90;;;;;;6179349;23;20017;-79
2021/11/22 08:12:27;;;;;;;17.27;1.80;;;6.70;99.90;;;;;;6179186;23;20083;-79
2021/11/22 08:15:12;;;;;;;11.70;2.08;;;6.70;99.90;;;;;;6179258;23;20024;-78
2021/11/22 08:17:40;;;;;;;13.15;1.95;;;6.80;99.90;;;;;;6178882;23;20012;-80
2021/11/22 08:20:09;;;;;;;13.82;2.17;;;6.80;99.90;;;;;;6179131;23;20476;-79
2021/11/22 08:22:36;;;;;;;16.17;1.70;;;6.80;99.90;;;;;;6179799;23;20067;-80
2021/11/22 08:25:05;;;;;;;12.57;2.35;;;6.80;99.90;;;;;;6179340;23;20362;-80
2021/11/22 08:27:32;;;;;;;16.13;3.03;;;6.80;99.90;;;;;;6179074;23;20013;-79
2021/11/22 08:30:27;;;;;;;15.23;2.40;;;6.90;99.90;;;;;;6179998;23;20048;-80
2021/11/22 08:32:56;;;;;;;17.13;2.22;;;6.90;99.90;;;;;;6174715;23;20013;-80
2021/11/22 08:35:24;;;;;;;;;;;6.90;99.90;;;;;;6179538;23;20469;-80
2021/11/22 08:37:51;;;;;;;11.90;1.65;;;7.00;99.90;;;;;;6154080;23;19920;-79
2021/11/22 08:40:22;;;;;;;9.20;1.90;;;7.00;99.90;;;;;;6178952;23;20411;-79
2021/11/22 08:42:52;;;;;;;12.30;1.83;;;7.10;99.90;;;;;;6179468;23;20582;-79
2021/11/22 08:45:19;;;;;;;15.73;2.20;;;7.10;99.90;;;;;;6178615;23;20534;-79
2021/11/22 08:47:46;;;;;;;8.93;1.85;;;7.10;99.90;;;;;;6179804;23;20021;-79
2021/11/22 08:50:14;;;;;;;9.15;1.75;;;7.20;99.90;;;;;;6179071;23;20483;-79
2021/11/22 08:52:43;;;;;;;9.60;2.30;;;7.20;99.90;;;;;;6181577;23;20017;-80
2021/11/22 08:55:11;;;;;;;8.88;1.42;;;7.30;99.90;;;;;;6181595;23;20418;-78
2021/11/22 08:57:38;;;;;;;;;;;7.30;99.90;;;;;;6182293;23;20021;-79
2021/11/22 09:00:11;;;;;;;10.20;1.73;;;7.40;99.90;;;;;;6181484;23;20309;-79
2021/11/22 09:02:38;;;;;;;8.30;1.25;;;7.40;99.90;;;;;;6180910;23;20017;-79
2021/11/22 09:05:06;;;;;;;11.82;1.88;;;7.50;99.90;;;;;;6181004;23;20028;-76
2021/11/22 09:07:33;;;;;;;13.52;2.25;;;7.50;99.90;;;;;;6181644;23;20020;-78
2021/11/22 09:10:00;;;;;;;10.85;1.42;;;7.60;99.90;;;;;;6181771;23;20550;-79
2021/11/22 09:12:29;;;;;;;14.00;1.90;;;7.70;99.90;;;;;;6181312;23;20017;-79
2021/11/22 09:14:58;;;;;;;16.13;1.98;;;7.70;99.90;;;;;;6181446;23;20075;-77
2021/11/22 09:17:25;;;;;;;7.40;1.13;;;7.80;99.90;;;;;;6180659;23;20021;-79
2021/11/22 09:19:52;;;;;;;7.38;1.50;;;7.90;99.90;;;;;;6181741;23;20025;-78
2021/11/22 09:22:19;;;;;;;15.57;1.83;;;8.00;99.90;;;;;;6154892;23;20410;-79
2021/11/22 09:24:45;;;;;;;14.35;1.80;;;8.00;99.90;;;;;;6181499;23;20475;-78
2021/11/22 09:27:12;;;;;;;11.63;1.65;;;8.10;99.90;;;;;;6180508;23;20079;-79
2021/11/22 09:29:39;;;;;;;10.95;1.40;;;8.10;99.90;;;;;;6181998;23;20059;-79
2021/11/22 09:32:07;;;;;;;11.82;2.13;;;8.20;99.90;;;;;;6180759;23;20024;-78
2021/11/22 09:34:36;;;;;;;8.00;2.63;;;8.30;99.90;;;;;;6181531;23;20028;-79
2021/11/22 09:37:03;;;;;;;7.40;1.33;;;8.30;99.90;;;;;;6181331;23;20021;-78
2021/11/22 09:39:31;;;;;;;8.18;1.85;;;8.30;99.90;;;;;;6154836;23;20040;-79
2021/11/22 09:42:03;;;;;;;12.70;1.40;;;8.40;99.90;;;;;;6181269;23;20827;-79
2021/11/22 09:44:30;;;;;;;9.65;1.75;;;8.40;99.90;;;;;;6181760;23;20023;-79
2021/11/22 09:46:57;;;;;;;12.43;2.25;;;8.40;99.90;;;;;;6154998;23;20119;-79
2021/11/22 09:49:24;;;;;;;12.98;1.80;;;8.50;99.90;;;;;;6180321;23;20029;-79
2021/11/22 09:51:52;;;;;;;8.98;1.33;;;8.50;99.90;;;;;;6181239;23;20542;-78
2021/11/22 09:54:19;;;;;;;9.15;1.30;;;8.50;99.90;;;;;;6180923;23;20415;-79
2021/11/22 09:56:49;;;;;;;7.35;1.58;;;8.50;99.90;;;;;;6180740;23;20065;-79
2021/11/22 09:59:18;;;;;;;12.80;1.88;;;8.60;99.90;;;;;;6181246;23;20025;-79
2021/11/22 10:01:51;;;;;;;11.95;1.52;;;8.60;99.90;;;;;;6180650;23;20031;-79
2021/11/22 10:04:19;;;;;;;11.02;1.65;;;8.60;99.90;;;;;;6180574;23;20025;-79
2021/11/22 10:06:59;;;;;;;13.90;2.00;;;8.70;99.90;;;;;;6181106;23;20017;-78
2021/11/22 10:09:30;;;;;;;11.70;1.48;;;8.70;99.90;;;;;;6180660;23;20027;-79
2021/11/22 10:12:04;;;;;;;12.88;2.90;;;8.70;99.90;;;;;;6181065;23;20079;-79
2021/11/22 10:14:36;;;;;;;;;;;8.70;99.90;;;;;;6181750;23;20015;-79
2021/11/22 10:17:25;;;;;;;10.95;1.45;;;8.80;99.90;;;;;;6181409;23;19916;-79
2021/11/22 10:20:07;;;;;;;12.23;1.85;;;8.80;99.90;;;;;;6180223;23;20021;-80
2021/11/22 10:22:48;;;;;;;14.48;2.00;;;8.90;99.90;;;;;;6181158;23;20067;-78
2021/11/22 10:25:18;;;;;;;10.38;1.40;;;9.00;99.90;;;;;;6153910;23;20025;-79
2021/11/22 10:27:45;;;;;;;7.35;1.02;;;9.10;99.90;;;;;;6180912;23;20131;-79
2021/11/22 10:30:22;;;;;;;11.95;1.80;;;9.20;99.90;;;;;;6180411;23;20029;-78
2021/11/22 10:32:53;;;;;;;5.80;1.08;;;9.30;99.90;;;;;;6181442;23;20017;-78
2021/11/22 10:35:21;;;;;;;8.93;1.42;;;9.30;99.90;;;;;;6180141;23;20510;-78
2021/11/22 10:38:03;;;;;;;9.45;1.42;;;9.40;99.90;;;;;;6180841;23;20021;-79
2021/11/22 10:40:58;;;;;;;6.15;1.00;;;9.50;99.90;;;;;;6160737;23;20024;-77
2021/11/22 10:43:36;;;;;;;5.90;1.23;;;9.60;99.90;;;;;;6179884;23;20021;-80
2021/11/22 10:46:09;;;;;;;4.50;1.10;;;9.60;99.90;;;;;;6181205;23;20529;-80
2021/11/22 10:48:37;;;;;;;6.95;1.05;;;9.60;99.90;;;;;;6168242;23;20013;-79
2021/11/22 10:51:07;;;;;;;;;;;9.60;99.90;;;;;;6180634;23;20021;-77
2021/11/22 10:53:42;;;;;;;7.65;1.20;;;9.70;99.90;;;;;;6181001;23;20405;-79
2021/11/22 10:56:13;;;;;;;8.15;1.13;;;9.70;99.90;;;;;;6180262;23;20033;-80
2021/11/22 10:59:18;;;;;;;5.63;1.00;;;9.70;99.90;;;;;;6180758;23;20017;-79
2021/11/22 11:01:49;;;;;;;4.57;0.82;;;9.70;99.90;;;;;;6059556;23;20026;-78
2021/11/22 11:04:25;;;;;;;3.53;0.93;;;9.70;99.90;;;;;;6059751;23;20057;-79
2021/11/22 11:06:57;;;;;;;7.38;1.40;;;9.70;99.90;;;;;;6072301;23;20102;-79
2021/11/22 11:09:50;;;;;;;6.30;0.95;;;9.80;99.90;;;;;;6075342;23;20073;-78
2021/11/22 11:12:20;;;;;;;4.65;1.08;;;9.80;99.90;;;;;;6073797;23;20082;-79
2021/11/22 11:14:58;;;;;;;9.38;1.10;;;9.90;99.90;;;;;;6071978;23;20114;-79
2021/11/22 11:17:30;;;;;;;4.13;0.70;;;9.90;99.90;;;;;;6075712;23;20018;-79
2021/11/22 11:20:00;;;;;;;4.53;0.90;;;9.90;99.90;;;;;;6077177;23;20077;-79
2021/11/22 11:22:29;;;;;;;6.13;1.10;;;9.90;99.90;;;;;;6072107;23;20078;-80
2021/11/22 11:24:57;;;;;;;5.18;1.00;;;9.90;99.90;;;;;;6071905;23;20087;-79
2021/11/22 11:27:34;;;;;;;6.35;1.02;;;9.80;99.90;;;;;;6088810;23;20093;-79
2021/11/22 11:30:03;;;;;;;7.55;1.15;;;9.80;99.90;;;;;;6089001;23;20018;-79
2021/11/22 11:32:31;;;;;;;7.93;1.30;;;9.80;99.90;;;;;;6088704;23;20473;-79
2021/11/22 11:34:59;;;;;;;7.93;1.23;;;9.80;99.90;;;;;;6105376;23;20091;-80
2021/11/22 11:38:10;;;;;;;4.80;0.93;;;9.80;99.90;;;;;;6179927;23;20079;-79
2021/11/22 11:40:52;;;;;;;5.93;0.80;;;9.90;99.90;;;;;;6180143;23;20025;-80
2021/11/22 11:43:40;;;;;;;9.13;1.20;;;9.90;99.90;;;;;;6179636;23;20021;-79
2021/11/22 11:46:38;;;;;;;8.00;1.05;;;9.90;99.90;;;;;;6165168;23;20072;-80
2021/11/22 11:49:07;;;;;;;5.50;0.82;;;9.90;99.90;;;;;;6179536;23;20025;-81
2021/11/22 11:51:39;;;;;;;;;;;9.90;99.90;;;;;;6181311;23;20017;-81
2021/11/22 11:54:25;;;;;;;7.85;1.55;;;9.90;99.90;;;;;;6179626;23;19916;-81
2021/11/22 11:57:02;;;;;;;7.22;1.52;;;10.00;99.90;;;;;;6180523;23;20088;-81
2021/11/22 11:59:40;;;;;;;13.35;1.70;;;10.00;99.90;;;;;;6180211;23;20025;-80
2021/11/22 12:02:07;;;;;;;4.80;1.10;;;10.10;99.90;;;;;;6179352;23;20028;-80
2021/11/22 12:04:47;;;;;;;8.40;1.00;;;10.20;99.90;;;;;;6180491;23;20041;-81
2021/11/22 12:07:47;;;;;;;8.00;1.02;;;10.20;99.90;;;;;;6179513;23;20017;-81
2021/11/22 12:10:28;;;;;;;11.40;1.40;;;10.30;99.90;;;;;;6179105;23;20538;-80
2021/11/22 12:12:57;;;;;;;7.00;1.10;;;10.40;99.90;;;;;;6180121;23;20072;-80
2021/11/22 12:15:32;;;;;;;8.82;1.23;;;10.40;99.90;;;;;;6179181;23;20029;-80
2021/11/22 12:18:30;;;;;;;9.30;1.30;;;10.40;99.90;;;;;;6179373;23;20424;-82
2021/11/22 12:21:05;;;;;;;4.75;1.00;;;10.40;99.90;;;;;;6180089;23;20025;-81
2021/11/22 12:23:45;;;;;;;8.00;1.30;;;10.40;99.90;;;;;;6153535;23;20048;-80
2021/11/22 12:26:14;;;;;;;7.03;1.50;;;10.40;99.90;;;;;;6180999;23;20025;-81
2021/11/22 12:28:43;;;;;;;9.10;1.33;;;10.40;99.90;;;;;;6156564;23;20020;-80
2021/11/22 12:31:23;;;;;;;7.70;1.10;;;10.30;99.90;;;;;;6181442;23;20415;-79
2021/11/22 12:34:04;;;;;;;6.75;1.10;;;10.30;99.90;;;;;;6182239;23;20091;-80
2021/11/22 12:36:35;;;;;;;8.52;0.88;;;10.30;99.90;;;;;;6181406;23;20021;-80
2021/11/22 12:39:23;;;;;;;8.70;1.30;;;10.30;99.90;;;;;;6181944;23;20017;-80
2021/11/22 12:41:53;;;;;;;8.20;1.10;;;10.40;99.90;;;;;;6181685;23;20013;-81
2021/11/22 12:44:22;;;;;;;6.55;1.25;;;10.40;99.90;;;;;;6181314;23;20021;-81
2021/11/22 12:46:54;;;;;;;;;;;10.40;99.90;;;;;;6182636;23;20403;-80
2021/11/22 12:49:32;;;;;;;6.05;0.80;;;10.40;99.90;;;;;;6181117;23;20243;-80
2021/11/22 12:52:16;;;;;;;7.93;1.02;;;10.50;99.90;;;;;;6181640;23;20021;-80
2021/11/22 12:54:49;;;;;;;11.20;2.90;;;10.50;99.90;;;;;;6181764;23;20501;-80
2021/11/22 12:57:22;;;;;;;14.48;2.88;;;10.60;99.90;;;;;;6181221;23;20052;-81
2021/11/22 13:00:13;;;;;;;7.82;1.13;;;10.70;99.90;;;;;;6181699;23;20072;-80
2021/11/22 13:02:40;;;;;;;5.55;0.90;;;10.80;99.90;;;;;;6181161;23;20013;-81
2021/11/22 13:05:44;;;;;;;4.50;1.20;;;10.80;99.90;;;;;;6180942;23;20080;-81
2021/11/22 13:08:17;;;;;;;5.97;1.02;;;10.70;99.90;;;;;;6181281;23;20021;-80
2021/11/22 13:11:02;;;;;;;6.38;1.92;;;10.60;99.90;;;;;;6181866;23;20084;-79
2021/11/22 13:16:14;;;;;;;5.57;1.70;;;10.50;99.90;;;;;;6180593;23;20024;-81
2021/11/22 13:19:05;;;;;;;13.15;1.80;;;10.40;99.90;;;;;;6155368;23;20029;-81
2021/11/22 13:21:37;;;;;;;7.43;1.38;;;10.40;99.90;;;;;;6167682;23;20021;-80
2021/11/22 13:24:14;;;;;;;12.65;4.15;;;10.40;99.90;;;;;;6181305;23;20116;-80
2021/11/22 13:26:43;;;;;;;8.93;1.50;;;10.40;99.90;;;;;;6181795;23;20345;-80
2021/11/22 13:29:14;;;;;;;7.78;1.33;;;10.40;99.90;;;;;;6180752;23;20487;-80
2021/11/22 13:31:43;;;;;;;11.25;2.90;;;10.40;99.90;;;;;;6181757;23;20471;-80
2021/11/22 13:34:17;;;;;;;7.53;1.30;;;10.50;99.90;;;;;;6180454;23;20523;-80
2021/11/22 13:36:56;;;;;;;9.95;2.03;;;10.50;99.90;;;;;;6181177;23;20024;-80
2021/11/22 13:39:36;;;;;;;7.72;1.55;;;10.60;99.90;;;;;;6180753;23;20021;-80
2021/11/22 13:42:12;;;;;;;7.32;1.48;;;10.60;99.90;;;;;;6181794;23;20047;-81
2021/11/22 13:44:46;;;;;;;9.05;1.45;;;10.70;99.90;;;;;;6155230;23;20013;-80
2021/11/22 13:47:21;;;;;;;8.40;1.77;;;10.70;99.90;;;;;;6155822;23;20068;-80
2021/11/22 13:49:48;;;;;;;6.13;1.20;;;10.80;99.90;;;;;;6180942;23;20079;-80
2021/11/22 13:52:21;;;;;;;4.13;1.05;;;10.80;99.90;;;;;;6180574;23;20017;-80
2021/11/22 13:54:48;;;;;;;6.47;0.90;;;10.80;99.90;;;;;;6181576;23;20013;-80
2021/11/22 13:57:16;;;;;;;4.63;1.00;;;10.80;99.90;;;;;;6180360;23;20032;-80
2021/11/22 13:59:45;;;;;;;10.75;1.20;;;10.80;99.90;;;;;;6181103;23;20017;-81
2021/11/22 14:02:16;;;;;;;9.27;1.40;;;10.90;99.90;;;;;;6180473;23;20033;-81
2021/11/22 14:04:46;;;;;;;7.68;1.05;;;10.90;99.90;;;;;;6181014;23;20399;-81
2021/11/22 14:07:14;;;;;;;;;;;10.90;99.90;;;;;;6180608;23;20071;-81
2021/11/22 14:09:42;;;;;;;8.77;1.42;;;10.90;99.90;;;;;;6181030;23;19916;-80
2021/11/22 14:12:10;;;;;;;5.25;1.08;;;10.90;99.90;;;;;;6179854;23;20029;-81
2021/11/22 14:14:45;;;;;;;12.10;2.50;;;10.90;99.90;;;;;;6181337;23;20021;-81
2021/11/22 14:17:18;;;;;;;9.40;1.10;;;11.00;99.90;;;;;;6180324;23;20576;-82
2021/11/22 14:20:02;;;;;;;7.65;1.70;;;11.00;99.90;;;;;;6180879;23;20085;-82
2021/11/22 14:22:37;;;;;;;15.07;1.70;;;11.00;99.90;;;;;;6180626;23;20517;-80
2021/11/22 14:25:04;;;;;;;6.28;1.58;;;11.10;99.90;;;;;;6181426;23;20046;-80
2021/11/22 14:27:31;;;;;;;8.25;1.73;;;11.10;99.90;;;;;;6180244;23;20021;-80
2021/11/22 14:30:01;;;;;;;9.90;1.80;;;11.10;99.90;;;;;;6181259;23;20021;-79
2021/11/22 14:32:39;;;;;;;8.20;1.33;;;11.00;99.90;;;;;;6180174;23;20071;-79
2021/11/22 14:35:21;;;;;;;8.07;0.93;;;11.00;99.90;;;;;;6180546;23;20021;-79
2021/11/22 14:38:23;;;;;;;6.32;0.95;;;10.90;99.90;;;;;;6181251;23;20021;-81
2021/11/22 14:41:16;;;;;;;6.25;1.33;;;10.90;99.90;;;;;;6180439;23;20063;-80
2021/11/22 14:43:44;;;;;;;5.72;1.02;;;10.80;99.90;;;;;;6180808;23;20017;-80
2021/11/22 14:46:19;;;;;;;5.30;0.80;;;10.70;99.90;;;;;;6179910;23;20079;-80
2021/11/22 14:48:48;;;;;;;6.82;1.38;;;10.70;99.90;;;;;;6154718;23;20032;-81
2021/11/22 14:51:18;;;;;;;4.93;1.10;;;10.70;99.90;;;;;;6179734;23;20056;-80
2021/11/22 14:54:05;;;;;;;7.30;1.20;;;10.60;99.90;;;;;;6181121;23;20028;-81
2021/11/22 14:56:40;;;;;;;7.70;1.15;;;10.60;99.90;;;;;;6180469;23;20110;-81
2021/11/22 14:59:23;;;;;;;6.72;1.10;;;10.60;99.90;;;;;;6180070;23;20017;-80
2021/11/22 15:02:33;;;;;;;7.57;0.93;;;10.50;99.90;;;;;;6180228;23;20028;-80
2021/11/22 15:05:00;;;;;;;3.15;0.60;;;10.50;99.90;;;;;;6180110;23;20013;-79
2021/11/22 15:07:28;;;;;;;3.42;0.80;;;10.50;99.90;;;;;;6179525;23;20456;-81
2021/11/22 15:10:08;;;;;;;12.20;1.08;;;10.50;99.90;;;;;;6180469;23;20021;-81
2021/11/22 15:12:38;;;;;;;6.05;0.90;;;10.50;99.90;;;;;;6179757;23;20032;-80
2021/11/22 15:15:11;;;;;;;4.55;0.80;;;10.40;99.90;;;;;;6178022;23;20029;-80
2021/11/22 15:17:40;;;;;;;8.18;1.38;;;10.40;99.90;;;;;;6179680;23;20072;-81
2021/11/22 15:20:10;;;;;;;6.63;2.38;;;10.40;99.90;;;;;;6178720;23;20083;-80
2021/11/22 15:22:39;;;;;;;11.95;1.75;;;10.30;99.90;;;;;;6179135;23;20056;-80
2021/11/22 15:25:07;;;;;;;;;;;10.30;99.90;;;;;;6178700;23;20545;-80
2021/11/22 15:27:35;;;;;;;;;;;10.20;99.90;;;;;;6179322;23;19970;-81
2021/11/22 15:30:08;;;;;;;11.63;1.38;;;10.20;99.90;;;;;;6178693;23;19971;-80
2021/11/22 15:32:35;;;;;;;6.63;1.67;;;10.20;99.90;;;;;;6178328;23;20013;-81
2021/11/22 15:35:04;;;;;;;6.95;1.02;;;10.20;99.90;;;;;;6179245;23;20041;-81
2021/11/22 15:37:31;;;;;;;7.95;1.70;;;10.10;99.90;;;;;;6152794;23;20475;-81
2021/11/22 15:39:58;;;;;;;8.68;1.52;;;10.10;99.90;;;;;;6179533;23;20024;-80
2021/11/22 15:42:30;;;;;;;11.48;1.75;;;10.10;99.90;;;;;;6179324;23;20031;-81
2021/11/22 15:45:01;;;;;;;5.88;1.38;;;10.00;99.90;;;;;;6179120;23;20029;-81
2021/11/22 15:47:28;;;;;;;9.02;1.63;;;10.00;99.90;;;;;;6177852;23;20402;-80
2021/11/22 15:49:55;;;;;;;10.77;1.20;;;10.00;99.90;;;;;;6179157;23;20029;-81
2021/11/22 15:52:22;;;;;;;8.02;1.77;;;10.00;99.90;;;;;;6178024;23;20029;-82
2021/11/22 15:54:49;;;;;;;13.20;1.83;;;9.90;99.90;;;;;;6178644;23;20091;-81
2021/11/22 15:57:17;;;;;;;11.82;1.50;;;9.90;99.90;;;;;;6178155;23;20021;-81
2021/11/22 15:59:44;;;;;;;9.32;1.33;;;9.90;99.90;;;;;;6179404;23;20025;-81
2021/11/22 16:02:11;;;;;;;9.57;1.20;;;9.80;99.90;;;;;;6178452;23;20017;-81
2021/11/22 16:04:40;;;;;;;9.82;2.00;;;9.80;99.90;;;;;;6178886;23;20068;-81
2021/11/22 16:07:07;;;;;;;12.20;1.58;;;9.80;99.90;;;;;;6178355;23;20059;-81
2021/11/22 16:09:36;;;;;;;5.82;1.30;;;9.70;99.90;;;;;;6179204;23;20076;-80
2021/11/22 16:12:05;;;;;;;;;;;9.70;99.90;;;;;;6179794;23;20032;-82
2021/11/22 16:14:33;;;;;;;9.45;1.40;;;9.60;99.90;;;;;;6178964;23;19923;-80
2021/11/22 16:17:01;;;;;;;7.55;1.55;;;9.60;99.90;;;;;;6179689;23;20483;-81
2021/11/22 16:19:29;;;;;;;8.33;1.47;;;9.50;99.90;;;;;;6177696;23;20449;-81
2021/11/22 16:21:57;;;;;;;13.98;2.70;;;9.50;99.90;;;;;;6179182;23;20244;-80
2021/11/22 16:24:25;;;;;;;10.48;2.33;;;9.50;99.90;;;;;;6178389;23;20029;-80
2021/11/22 16:26:54;;;;;;;27.17;9.27;;;9.40;99.90;;;;;;6153286;23;20455;-81
2021/11/22 16:29:41;;;;;;;15.13;3.80;;;9.40;99.90;;;;;;6177616;23;20033;-81
2021/11/22 16:32:09;;;;;;;17.40;6.43;;;9.30;99.90;;;;;;6178849;23;20016;-81
2021/11/22 16:34:37;;;;;;;;;;;9.30;99.90;;;;;;6180211;23;20068;-82
2021/11/22 16:37:04;;;;;;;13.38;2.97;;;9.20;99.90;;;;;;6179341;23;19916;-80
2021/11/22 16:39:32;;;;;;;8.27;1.20;;;9.10;99.90;;;;;;6178389;23;20029;-80
2021/11/22 16:41:59;;;;;;;10.55;1.77;;;9.10;99.90;;;;;;6179165;23;20072;-81
2021/11/22 16:44:26;;;;;;;8.80;1.63;;;9.10;99.90;;;;;;6178445;23;20059;-82
2021/11/22 16:46:56;;;;;;;23.75;7.78;;;9.00;99.90;;;;;;6179126;23;20021;-81
2021/11/22 16:49:24;;;;;;;17.15;6.00;;;9.00;99.90;;;;;;6178116;23;20092;-80
2021/11/22 16:51:51;;;;;;;15.40;2.85;;;9.00;99.90;;;;;;6178968;23;20025;-80
2021/11/22 16:54:20;;;;;;;8.98;2.47;;;8.90;99.90;;;;;;6178674;23;20079;-80
2021/11/22 16:56:47;;;;;;;10.60;2.37;;;8.90;99.90;;;;;;6178245;23;20099;-81
2021/11/22 16:59:17;;;;;;;7.72;2.00;;;8.80;99.90;;;;;;6178262;23;20273;-81
2021/11/22 17:01:44;;;;;;;9.18;1.90;;;8.80;99.90;;;;;;6178674;23;20024;-82
2021/11/22 17:04:13;;;;;;;9.53;1.63;;;8.80;99.90;;;;;;6153031;23;20021;-81
2021/11/22 17:06:42;;;;;;;8.35;2.60;;;8.80;99.90;;;;;;6179066;23;20044;-82
2021/11/22 17:09:13;;;;;;;10.23;1.30;;;8.80;99.90;;;;;;6177966;23;20024;-82
2021/11/22 17:11:41;;;;;;;11.13;1.52;;;8.80;99.90;;;;;;6178459;23;20017;-81
2021/11/22 17:14:09;;;;;;;7.07;1.40;;;8.70;99.90;;;;;;6153061;23;20021;-81
2021/11/22 17:16:38;;;;;;;6.60;1.30;;;8.70;99.90;;;;;;6181420;23;20017;-82
2021/11/22 17:19:09;;;;;;;10.40;1.60;;;8.70;99.90;;;;;;6179372;23;20024;-79
2021/11/22 17:21:41;;;;;;;22.80;6.10;;;8.70;99.90;;;;;;6180380;23;20105;-80
2021/11/22 17:24:09;;;;;;;13.05;1.67;;;8.70;99.90;;;;;;6179352;23;20507;-81
2021/11/22 17:26:36;;;;;;;7.82;1.50;;;8.60;99.90;;;;;;6180523;23;20017;-80
2021/11/22 17:29:04;;;;;;;8.93;1.60;;;8.60;99.90;;;;;;6180792;23;20068;-81
2021/11/22 17:31:31;;;;;;;9.85;1.65;;;8.60;99.90;;;;;;6179961;23;20076;-81
2021/11/22 17:33:57;;;;;;;10.45;1.80;;;8.60;99.90;;;;;;6180682;23;20020;-80
2021/11/22 17:36:24;;;;;;;9.95;1.85;;;8.60;99.90;;;;;;6179706;23;20032;-80
2021/11/22 17:38:51;;;;;;;11.07;3.15;;;8.50;99.90;;;;;;6180069;23;20021;-81
2021/11/22 17:41:20;;;;;;;10.10;1.92;;;8.50;99.90;;;;;;6179161;23;20083;-81
2021/11/22 17:43:48;;;;;;;;;;;8.50;99.90;;;;;;6180679;23;20483;-79
2021/11/22 17:46:16;;;;;;;11.73;1.73;;;8.50;99.90;;;;;;6180240;23;19917;-81
2021/11/22 17:48:43;;;;;;;7.90;1.30;;;8.40;99.90;;;;;;6154786;23;20024;-81
2021/11/22 17:51:10;;;;;;;15.45;4.38;;;8.40;99.90;;;;;;6179692;23;20071;-80
2021/11/22 17:53:37;;;;;;;9.88;1.88;;;8.40;99.90;;;;;;6180211;23;20021;-79
2021/11/22 17:56:04;;;;;;;11.93;3.13;;;8.40;99.90;;;;;;6180346;23;20566;-81
2021/11/22 17:58:31;;;;;;;10.20;2.72;;;8.30;99.90;;;;;;6180468;23;20067;-80
2021/11/22 18:00:58;;;;;;;10.10;1.88;;;8.30;99.90;;;;;;6179811;23;20021;-79
2021/11/22 18:03:25;;;;;;;10.05;2.00;;;8.30;99.90;;;;;;6178660;23;20025;-79
2021/11/22 18:05:52;;;;;;;10.75;1.80;;;8.30;99.90;;;;;;6180477;23;20076;-79
2021/11/22 18:08:19;;;;;;;12.07;2.20;;;8.30;99.90;;;;;;6179643;23;20024;-80
2021/11/22 18:10:48;;;;;;;10.13;1.83;;;8.20;99.90;;;;;;6154113;23;20013;-80
2021/11/22 18:13:21;;;;;;;12.57;3.47;;;8.20;99.90;;;;;;6178282;23;20081;-81
2021/11/22 18:15:51;;;;;;;10.65;1.63;;;8.20;99.90;;;;;;6179587;23;20017;-83
2021/11/22 18:18:19;;;;;;;8.80;1.85;;;8.10;99.90;;;;;;6179637;23;20025;-83
2021/11/22 18:20:46;;;;;;;15.00;2.58;;;8.10;99.90;;;;;;6180072;23;20067;-82
2021/11/22 18:23:14;;;;;;;16.95;4.75;;;8.10;99.90;;;;;;6178917;23;20029;-80
2021/11/22 18:25:41;;;;;;;11.40;1.75;;;8.10;99.90;;;;;;6179724;23;20756;-81
2021/11/22 18:28:08;;;;;;;11.18;2.38;;;8.10;99.90;;;;;;6178255;23;20029;-81
2021/11/22 18:31:00;;;;;;;14.48;3.03;;;8.10;99.90;;;;;;6117951;23;20068;-83
2021/11/22 18:33:28;;;;;;;12.88;2.75;;;8.10;99.90;;;;;;6172752;23;20357;-80
2021/11/22 18:36:01;;;;;;;8.98;1.38;;;8.00;99.90;;;;;;6149917;23;20430;-81
2021/11/22 18:38:28;;;;;;;9.98;2.08;;;8.00;99.90;;;;;;6176082;23;20467;-82
2021/11/22 18:40:55;;;;;;;8.88;2.50;;;8.00;99.90;;;;;;6175981;23;20025;-82
2021/11/22 18:43:22;;;;;;;11.75;2.15;;;8.00;99.90;;;;;;6149584;23;20067;-83
2021/11/22 18:45:49;;;;;;;10.25;1.88;;;8.00;99.90;;;;;;6174143;23;20404;-81
2021/11/22 18:48:16;;;;;;;8.98;1.60;;;8.00;99.90;;;;;;6175464;23;20025;-81
2021/11/22 18:50:44;;;;;;;8.77;2.53;;;8.00;99.90;;;;;;6176628;23;20041;-83
2021/11/22 18:53:36;;;;;;;11.10;2.08;;;7.90;99.90;;;;;;6176437;23;20008;-83
2021/11/22 18:56:04;;;;;;;14.83;6.83;;;7.90;99.90;;;;;;6175887;23;20021;-82
2021/11/22 18:58:32;;;;;;;;;;;7.90;99.90;;;;;;6175777;23;20774;-81
2021/11/22 19:00:59;;;;;;;9.50;2.90;;;7.80;99.90;;;;;;6175087;23;20258;-81
2021/11/22 19:03:26;;;;;;;13.02;2.53;;;7.80;99.90;;;;;;6173937;23;20098;-82
2021/11/22 19:05:54;;;;;;;13.18;3.97;;;7.80;99.90;;;;;;6175946;23;20383;-81
2021/11/22 19:08:21;;;;;;;25.08;7.68;;;7.80;99.90;;;;;;6173273;23;20033;-82
2021/11/22 19:10:51;;;;;;;11.35;4.13;;;7.80;99.90;;;;;;6173424;23;20358;-81
2021/11/22 19:13:18;;;;;;;14.52;4.60;;;7.70;99.90;;;;;;6174024;23;20411;-81
2021/11/22 19:15:45;;;;;;;14.70;3.30;;;7.70;99.90;;;;;;6146968;23;20757;-81
2021/11/22 19:18:12;;;;;;;9.55;2.85;;;7.70;99.90;;;;;;6174104;23;20145;-82
2021/11/22 19:20:39;;;;;;;10.23;1.70;;;7.70;99.90;;;;;;6173088;23;20017;-82
2021/11/22 19:23:06;;;;;;;11.93;3.90;;;7.70;99.90;;;;;;6172327;23;20024;-81
2021/11/22 19:25:35;;;;;;;25.52;8.10;;;7.70;99.90;;;;;;6146807;23;20554;-80
2021/11/22 19:28:08;;;;;;;10.68;1.50;;;7.60;99.90;;;;;;6170863;23;20021;-80
2021/11/22 19:30:35;;;;;;;8.55;1.80;;;7.60;99.90;;;;;;6173507;23;20025;-80
2021/11/22 19:33:05;;;;;;;10.90;2.33;;;7.60;99.90;;;;;;6173600;23;20025;-79
2021/11/22 19:35:32;;;;;;;10.35;2.00;;;7.60;99.90;;;;;;6146720;23;20021;-81
2021/11/22 19:37:59;;;;;;;15.50;2.90;;;7.50;99.90;;;;;;6173193;23;20096;-79
2021/11/22 19:40:26;;;;;;;11.30;1.92;;;7.50;99.90;;;;;;6172364;23;20052;-81
2021/11/22 19:42:54;;;;;;;13.43;3.17;;;7.50;99.90;;;;;;6173185;23;20419;-81
2021/11/22 19:45:22;;;;;;;10.68;2.38;;;7.50;99.90;;;;;;6146435;23;20017;-78
2021/11/22 19:47:50;;;;;;;30.08;8.68;;;7.50;99.90;;;;;;6173393;23;20554;-81
2021/11/22 19:50:17;;;;;;;13.63;2.30;;;7.50;99.90;;;;;;6172209;23;20025;-79
2021/11/22 19:52:49;;;;;;;10.80;2.10;;;7.50;99.90;;;;;;6174105;23;20021;-82
2021/11/22 19:55:18;;;;;;;20.17;8.98;;;7.40;99.90;;;;;;6175067;23;20024;-81
2021/11/22 19:57:45;;;;;;;9.05;2.40;;;7.40;99.90;;;;;;6175889;23;20411;-81
2021/11/22 20:00:13;;;;;;;12.80;3.13;;;7.40;99.90;;;;;;6174658;23;20075;-80
2021/11/22 20:02:41;;;;;;;5.10;1.20;;;7.40;99.90;;;;;;6175621;23;20400;-81
2021/11/22 20:05:08;;;;;;;10.65;2.10;;;7.30;99.90;;;;;;6175140;23;20323;-81
2021/11/22 20:07:36;;;;;;;7.15;1.45;;;7.30;99.90;;;;;;6176353;23;20489;-81
2021/11/22 20:10:06;;;;;;;;;;;7.30;99.90;;;;;;6175876;23;20029;-81
2021/11/22 20:12:37;;;;;;;12.32;2.90;;;7.30;99.90;;;;;;6175187;23;20323;-81
2021/11/22 20:15:07;;;;;;;6.38;1.60;;;7.20;99.90;;;;;;6150877;23;20021;-82
2021/11/22 20:17:34;;;;;;;10.00;1.63;;;7.20;99.90;;;;;;6177222;23;20087;-82